createdAt,value
2017-12-01T00:00:27.138Z,99300.22
2017-12-01T00:02:56.339Z,99301.94
2017-12-01T00:05:25.553Z,99303.85
2017-12-01T00:07:54.763Z,99305.50
2017-12-01T00:10:23.965Z,99309.38
2017-12-01T00:12:54.022Z,99309.71
2017-12-01T00:15:27.079Z,99315.70
2017-12-01T00:17:59.223Z,99315.05
2017-12-01T00:20:28.458Z,99314.11
2017-12-01T00:22:57.658Z,99310.62
2017-12-01T00:25:26.874Z,99320.03
2017-12-01T00:27:56.095Z,99322.87
2017-12-01T00:30:25.293Z,99329.22
2017-12-01T00:32:54.529Z,99323.42
2017-12-01T00:35:24.491Z,99331.48
2017-12-01T00:37:53.772Z,99328.97
2017-12-01T00:40:22.919Z,99335.14
2017-12-01T00:42:53.016Z,99331.50
2017-12-01T00:45:22.266Z,99331.98
2017-12-01T00:47:51.472Z,99335.75
2017-12-01T00:50:20.720Z,99338.87
2017-12-01T00:52:49.928Z,99340.05
2017-12-01T00:55:19.281Z,99345.44
2017-12-01T00:57:49.215Z,99351.25
2017-12-01T01:00:18.418Z,99353.57
2017-12-01T01:02:47.626Z,99358.70
2017-12-01T01:05:16.920Z,99361.79
2017-12-01T01:07:46.111Z,99366.46
2017-12-01T01:10:15.345Z,99368.60
2017-12-01T01:12:45.343Z,99373.55
2017-12-01T01:15:14.742Z,99377.61
2017-12-01T01:17:43.959Z,99382.84
2017-12-01T01:20:13.911Z,99377.86
2017-12-01T01:22:43.319Z,99379.59
2017-12-01T01:25:12.562Z,99388.58
2017-12-01T01:27:41.774Z,99387.57
2017-12-01T01:30:11.751Z,99392.86
2017-12-01T01:32:40.968Z,99399.02
2017-12-01T01:35:10.174Z,99400.16
2017-12-01T01:37:40.176Z,99398.87
2017-12-01T01:40:09.377Z,99406.84
2017-12-01T01:42:38.643Z,99408.34
2017-12-01T01:45:07.859Z,99406.30
2017-12-01T01:47:37.083Z,99410.48
2017-12-01T01:50:06.255Z,99415.78
2017-12-01T01:52:35.458Z,99417.49
2017-12-01T01:55:04.820Z,99423.14
2017-12-01T01:57:34.024Z,99422.80
2017-12-01T02:00:03.245Z,99428.64
2017-12-01T02:02:32.489Z,99427.26
2017-12-01T02:05:02.437Z,99432.64
2017-12-01T02:07:32.447Z,99437.25
2017-12-01T02:10:01.643Z,99436.78
2017-12-01T02:12:30.812Z,99437.48
2017-12-01T02:15:00.841Z,99443.87
2017-12-01T02:17:30.057Z,99447.17
2017-12-01T02:19:59.260Z,99447.14
2017-12-01T02:22:28.494Z,99452.20
2017-12-01T02:24:58.479Z,99454.27
2017-12-01T02:27:28.515Z,99454.47
2017-12-01T02:29:57.687Z,99461.63
2017-12-01T02:32:26.902Z,99458.80
2017-12-01T02:34:56.095Z,99457.17
2017-12-01T02:37:25.527Z,99462.91
2017-12-01T02:39:54.776Z,99459.64
2017-12-01T02:42:23.935Z,99455.36
2017-12-01T02:44:53.918Z,99461.11
2017-12-01T02:47:23.089Z,99461.61
2017-12-01T02:49:52.294Z,99468.50
2017-12-01T02:52:21.490Z,99469.39
2017-12-01T02:54:51.359Z,99475.70
2017-12-01T02:57:20.610Z,99476.34
2017-12-01T02:59:51.322Z,99476.88
2017-12-01T03:02:20.533Z,99482.45
2017-12-01T03:04:49.735Z,99489.49
2017-12-01T03:07:19.008Z,99488.70
2017-12-01T03:09:48.213Z,99487.95
2017-12-01T03:12:17.430Z,99491.27
2017-12-01T03:14:46.620Z,99497.66
2017-12-01T03:17:15.827Z,99502.94
2017-12-01T03:19:45.024Z,99496.75
2017-12-01T03:22:14.235Z,99506.41
2017-12-01T03:24:43.411Z,99506.16
2017-12-01T03:27:12.814Z,99515.00
2017-12-01T03:29:41.996Z,99515.45
2017-12-01T03:32:11.235Z,99520.50
2017-12-01T03:34:40.768Z,99522.48
2017-12-01T03:37:10.958Z,99530.00
2017-12-01T03:39:40.142Z,99524.72
2017-12-01T03:42:09.346Z,99531.04
2017-12-01T03:44:38.542Z,99542.02
2017-12-01T03:47:07.743Z,99548.08
2017-12-01T03:49:36.964Z,99544.55
2017-12-01T03:52:06.923Z,99551.02
2017-12-01T03:54:36.110Z,99552.21
2017-12-01T03:57:05.344Z,99555.39
2017-12-01T03:59:35.259Z,99554.05
2017-12-01T04:02:04.434Z,99564.24
2017-12-01T04:04:33.636Z,99566.77
2017-12-01T04:07:02.856Z,99570.64
2017-12-01T04:09:32.008Z,99567.81
2017-12-01T04:12:01.180Z,99573.93
2017-12-01T04:14:31.143Z,99577.39
2017-12-01T04:17:00.350Z,99579.38
2017-12-01T04:19:29.535Z,99581.39
2017-12-01T04:21:58.823Z,99589.66
2017-12-01T04:24:28.020Z,99592.20
2017-12-01T04:26:57.232Z,99597.97
2017-12-01T04:29:26.504Z,99596.87
2017-12-01T04:31:55.676Z,99604.25
2017-12-01T04:34:25.631Z,99603.84
2017-12-01T04:36:55.124Z,99603.53
2017-12-01T04:39:24.354Z,99611.20
2017-12-01T04:41:53.628Z,99614.48
2017-12-01T04:44:23.555Z,99616.67
2017-12-01T04:46:52.842Z,99624.69
2017-12-01T04:49:22.795Z,99624.55
2017-12-01T04:51:52.043Z,99626.53
2017-12-01T04:54:21.212Z,99630.86
2017-12-01T04:56:51.162Z,99631.17
2017-12-01T04:59:20.358Z,99642.34
2017-12-01T05:01:49.561Z,99639.52
2017-12-01T05:04:18.751Z,99648.21
2017-12-01T05:06:48.006Z,99648.91
2017-12-01T05:09:17.211Z,99656.56
2017-12-01T05:11:47.255Z,99656.63
2017-12-01T05:14:16.436Z,99661.38
2017-12-01T05:16:46.492Z,99661.88
2017-12-01T05:19:15.695Z,99672.69
2017-12-01T05:21:44.935Z,99674.23
2017-12-01T05:24:14.129Z,99671.73
2017-12-01T05:26:44.132Z,99680.06
2017-12-01T05:29:13.323Z,99681.11
2017-12-01T05:31:42.572Z,99684.23
2017-12-01T05:34:11.787Z,99692.83
2017-12-01T05:36:41.459Z,99697.11
2017-12-01T05:39:10.659Z,99697.91
2017-12-01T05:41:40.649Z,99704.14
2017-12-01T05:44:09.851Z,99713.86
2017-12-01T05:46:39.118Z,99720.38
2017-12-01T05:49:08.304Z,99717.00
2017-12-01T05:51:37.516Z,99732.72
2017-12-01T05:54:06.788Z,99724.67
2017-12-01T05:56:35.965Z,99735.02
2017-12-01T05:59:05.926Z,99735.05
2017-12-01T06:01:35.586Z,99738.82
2017-12-01T06:04:05.535Z,99742.16
2017-12-01T06:06:34.812Z,99746.72
2017-12-01T06:09:04.027Z,99754.12
2017-12-01T06:11:33.341Z,99757.80
2017-12-01T06:14:02.581Z,99758.59
2017-12-01T06:16:32.547Z,99766.41
2017-12-01T06:19:01.719Z,99764.80
2017-12-01T06:21:31.768Z,99768.97
2017-12-01T06:24:01.784Z,99765.61
2017-12-01T06:26:30.992Z,99776.87
2017-12-01T06:29:00.177Z,99779.13
2017-12-01T06:31:29.395Z,99783.80
2017-12-01T06:33:59.427Z,99785.40
2017-12-01T06:36:28.632Z,99789.30
2017-12-01T06:38:58.646Z,99797.66
2017-12-01T06:41:28.795Z,99795.92
2017-12-01T06:43:58.023Z,99801.68
2017-12-01T06:46:27.228Z,99805.34
2017-12-01T06:48:56.439Z,99811.11
2017-12-01T06:51:25.648Z,99810.55
2017-12-01T06:53:55.623Z,99818.50
2017-12-01T06:56:24.823Z,99820.23
2017-12-01T06:58:54.031Z,99824.24
2017-12-01T07:01:23.247Z,99830.69
2017-12-01T07:03:52.640Z,99840.73
2017-12-01T07:06:21.851Z,99850.28
2017-12-01T07:08:51.054Z,99850.16
2017-12-01T07:11:21.055Z,99856.72
2017-12-01T07:13:50.287Z,99858.45
2017-12-01T07:16:20.257Z,99862.19
2017-12-01T07:18:49.455Z,99865.51
2017-12-01T07:21:18.654Z,99872.73
2017-12-01T07:23:48.306Z,99871.37
2017-12-01T07:26:35.375Z,99877.13
2017-12-01T07:29:04.637Z,99878.43
2017-12-01T07:31:33.860Z,99888.87
2017-12-01T07:34:03.096Z,99892.88
2017-12-01T07:36:32.459Z,99893.16
2017-12-01T07:39:02.454Z,99895.02
2017-12-01T07:41:31.648Z,99900.41
2017-12-01T07:44:02.182Z,99905.38
2017-12-01T07:46:31.377Z,99913.95
2017-12-01T07:49:00.643Z,99912.34
2017-12-01T07:51:30.653Z,99919.44
2017-12-01T07:53:59.842Z,99927.22
2017-12-01T07:56:29.048Z,99926.39
2017-12-01T07:58:59.016Z,99935.05
2017-12-01T08:01:28.225Z,99941.23
2017-12-01T08:03:58.291Z,99951.03
2017-12-01T08:06:28.263Z,99951.02
2017-12-01T08:08:57.499Z,99947.79
2017-12-01T08:11:27.494Z,99949.28
2017-12-01T08:13:56.707Z,99956.60
2017-12-01T08:16:44.300Z,99966.92
2017-12-01T08:19:13.488Z,99970.30
2017-12-01T08:22:00.162Z,99976.45
2017-12-01T08:24:46.984Z,99979.01
2017-12-01T08:27:16.195Z,99982.89
2017-12-01T08:29:45.421Z,99991.73
2017-12-01T08:32:14.638Z,99986.09
2017-12-01T08:34:44.633Z,99997.37
2017-12-01T08:37:13.859Z,99999.91
2017-12-01T08:39:43.172Z,99995.23
2017-12-01T08:42:12.400Z,100000.97
2017-12-01T08:44:41.588Z,100009.00
2017-12-01T08:47:10.812Z,100012.91
2017-12-01T08:49:40.031Z,100016.91
2017-12-01T08:52:09.225Z,100021.72
2017-12-01T08:54:38.476Z,100019.70
2017-12-01T08:57:07.685Z,100025.15
2017-12-01T08:59:36.935Z,100029.59
2017-12-01T09:02:06.957Z,100034.68
2017-12-01T09:04:36.935Z,100043.25
2017-12-01T09:07:06.900Z,100044.59
2017-12-01T09:09:36.125Z,100048.86
2017-12-01T09:12:05.331Z,100052.33
2017-12-01T09:14:34.539Z,100052.56
2017-12-01T09:17:03.791Z,100058.73
2017-12-01T09:19:33.015Z,100067.06
2017-12-01T09:22:02.243Z,100072.86
2017-12-01T09:24:31.430Z,100078.39
2017-12-01T09:27:00.647Z,100081.78
2017-12-01T09:29:29.863Z,100080.18
2017-12-01T09:31:59.833Z,100087.45
2017-12-01T09:34:29.031Z,100089.05
2017-12-01T09:36:58.329Z,100085.70
2017-12-01T09:39:27.565Z,100092.39
2017-12-01T09:41:57.558Z,100095.59
2017-12-01T09:44:26.725Z,100099.22
2017-12-01T09:46:55.948Z,100106.60
2017-12-01T09:49:25.147Z,100115.58
2017-12-01T09:51:55.182Z,100118.82
2017-12-01T09:54:25.164Z,100121.61
2017-12-01T09:56:54.383Z,100125.36
2017-12-01T09:59:23.732Z,100121.07
2017-12-01T10:01:53.093Z,100128.58
2017-12-01T10:04:22.272Z,100127.09
2017-12-01T10:06:51.482Z,100126.30
2017-12-01T10:09:21.466Z,100132.87
2017-12-01T10:11:50.674Z,100126.97
2017-12-01T10:14:19.919Z,100143.44
2017-12-01T10:16:49.220Z,100142.36
2017-12-01T10:19:18.542Z,100141.70
2017-12-01T10:21:47.752Z,100143.45
2017-12-01T10:24:17.062Z,100147.74
2017-12-01T10:26:46.285Z,100147.22
2017-12-01T10:29:15.508Z,100151.09
2017-12-01T10:31:45.480Z,100149.20
2017-12-01T10:34:14.706Z,100148.27
2017-12-01T10:36:43.909Z,100150.70
2017-12-01T10:39:13.919Z,100151.23
2017-12-01T10:41:43.144Z,100150.81
2017-12-01T10:44:12.368Z,100160.32
2017-12-01T10:46:41.560Z,100152.94
2017-12-01T10:49:10.963Z,100154.54
2017-12-01T10:51:40.207Z,100153.46
2017-12-01T10:54:09.410Z,100153.18
2017-12-01T10:56:38.692Z,100159.88
2017-12-01T10:59:08.635Z,100152.77
2017-12-01T11:01:38.640Z,100162.95
2017-12-01T11:04:07.856Z,100163.33
2017-12-01T11:06:37.090Z,100170.16
2017-12-01T11:09:06.290Z,100164.91
2017-12-01T11:11:35.502Z,100172.41
2017-12-01T11:14:04.707Z,100175.36
2017-12-01T11:16:33.935Z,100177.61
2017-12-01T11:19:03.127Z,100172.73
2017-12-01T11:21:32.359Z,100172.00
2017-12-01T11:24:01.576Z,100184.48
2017-12-01T11:26:30.766Z,100187.15
2017-12-01T11:28:59.991Z,100186.50
2017-12-01T11:31:29.178Z,100186.63
2017-12-01T11:33:58.531Z,100186.48
2017-12-01T11:36:27.688Z,100186.64
2017-12-01T11:38:57.678Z,100193.06
2017-12-01T11:41:26.862Z,100197.87
2017-12-01T11:43:56.095Z,100196.44
2017-12-01T11:46:25.335Z,100198.12
2017-12-01T11:48:55.339Z,100204.28
2017-12-01T11:51:25.296Z,100205.33
2017-12-01T11:53:54.506Z,100200.36
2017-12-01T11:56:23.710Z,100201.98
2017-12-01T11:58:52.931Z,100201.41
2017-12-01T12:01:22.175Z,100204.32
2017-12-01T12:03:51.378Z,100206.63
2017-12-01T12:06:20.583Z,100211.77
2017-12-01T12:08:49.815Z,100211.53
2017-12-01T12:11:19.034Z,100212.84
2017-12-01T12:13:48.228Z,100217.03
2017-12-01T12:16:17.444Z,100224.55
2017-12-01T12:18:47.388Z,100221.38
2017-12-01T12:21:16.593Z,100227.03
2017-12-01T12:23:45.780Z,100227.57
2017-12-01T12:26:14.999Z,100226.08
2017-12-01T12:28:44.226Z,100228.92
2017-12-01T12:31:15.071Z,100234.05
2017-12-01T12:33:45.027Z,100236.22
2017-12-01T12:36:14.235Z,100238.66
2017-12-01T12:38:43.436Z,100230.87
2017-12-01T12:41:13.459Z,100226.69
2017-12-01T12:43:42.690Z,100238.91
2017-12-01T12:46:11.851Z,100243.77
2017-12-01T12:48:41.052Z,100244.55
2017-12-01T12:51:10.255Z,100247.94
2017-12-01T12:53:39.469Z,100255.05
2017-12-01T12:56:08.667Z,100254.50
2017-12-01T12:58:37.867Z,100257.32
2017-12-01T13:01:07.055Z,100257.62
2017-12-01T13:03:36.257Z,100255.34
2017-12-01T13:06:06.399Z,100255.86
2017-12-01T13:08:36.370Z,100256.54
2017-12-01T13:11:05.582Z,100269.83
2017-12-01T13:13:34.807Z,100266.20
2017-12-01T13:16:04.809Z,100269.69
2017-12-01T13:18:35.817Z,100268.77
2017-12-01T13:21:05.002Z,100274.81
2017-12-01T13:23:34.234Z,100277.37
2017-12-01T13:26:03.459Z,100268.51
2017-12-01T13:28:32.698Z,100275.34
2017-12-01T13:31:01.927Z,100275.73
2017-12-01T13:33:31.191Z,100275.98
2017-12-01T13:36:00.399Z,100280.55
2017-12-01T13:38:29.610Z,100288.08
2017-12-01T13:40:59.650Z,100286.34
2017-12-01T13:43:28.897Z,100292.11
2017-12-01T13:45:58.126Z,100293.98
2017-12-01T13:48:27.354Z,100297.70
2017-12-01T13:50:57.332Z,100296.33
2017-12-01T13:53:27.310Z,100305.84
2017-12-01T13:55:56.531Z,100308.70
2017-12-01T13:58:25.748Z,100302.13
2017-12-01T14:00:54.955Z,100311.64
2017-12-01T14:03:24.152Z,100312.31
2017-12-01T14:05:53.495Z,100316.21
2017-12-01T14:08:23.438Z,100315.41
2017-12-01T14:10:52.703Z,100314.84
2017-12-01T14:13:21.876Z,100320.49
2017-12-01T14:15:51.852Z,100321.56
2017-12-01T14:18:21.209Z,100323.29
2017-12-01T14:20:51.195Z,100325.03
2017-12-01T14:23:20.426Z,100334.71
2017-12-01T14:25:50.452Z,100340.58
2017-12-01T14:28:19.668Z,100340.95
2017-12-01T14:30:48.912Z,100337.74
2017-12-01T14:33:18.235Z,100338.56
2017-12-01T14:35:47.468Z,100343.78
2017-12-01T14:38:16.690Z,100349.95
2017-12-01T14:40:46.687Z,100359.48
2017-12-01T14:43:15.911Z,100359.59
2017-12-01T14:45:45.174Z,100360.94
2017-12-01T14:48:14.373Z,100371.45
2017-12-01T14:50:43.596Z,100371.30
2017-12-01T14:53:12.832Z,100367.67
2017-12-01T14:55:42.081Z,100370.91
2017-12-01T14:58:11.282Z,100374.55
2017-12-01T15:00:40.486Z,100372.93
2017-12-01T15:03:09.700Z,100382.05
2017-12-01T15:05:38.935Z,100383.23
2017-12-01T15:08:08.156Z,100393.02
2017-12-01T15:10:37.441Z,100397.30
2017-12-01T15:13:06.671Z,100401.17
2017-12-01T15:15:35.907Z,100401.31
2017-12-01T15:18:05.900Z,100403.59
2017-12-01T15:20:35.103Z,100407.36
2017-12-01T15:23:04.341Z,100416.25
2017-12-01T15:25:33.587Z,100416.95
2017-12-01T15:28:02.823Z,100416.30
2017-12-01T15:30:32.763Z,100423.96
2017-12-01T15:33:01.996Z,100422.23
2017-12-01T15:35:31.219Z,100429.50
2017-12-01T15:38:01.297Z,100425.77
2017-12-01T15:40:30.549Z,100430.86
2017-12-01T15:43:00.592Z,100431.90
2017-12-01T15:45:29.848Z,100441.46
2017-12-01T15:47:59.869Z,100443.05
2017-12-01T15:50:29.892Z,100443.32
2017-12-01T15:52:59.888Z,100449.75
2017-12-01T15:55:29.083Z,100448.56
2017-12-01T15:57:58.324Z,100455.67
2017-12-01T16:00:27.548Z,100455.69
2017-12-01T16:02:56.731Z,100451.80
2017-12-01T16:05:25.937Z,100456.92
2017-12-01T16:07:55.175Z,100456.00
2017-12-01T16:10:24.387Z,100459.91
2017-12-01T16:12:54.354Z,100466.76
2017-12-01T16:15:23.578Z,100461.78
2017-12-01T16:17:52.810Z,100470.53
2017-12-01T16:20:22.767Z,100475.50
2017-12-01T16:22:52.004Z,100480.05
2017-12-01T16:25:21.212Z,100480.98
2017-12-01T16:27:51.192Z,100483.81
2017-12-01T16:30:20.402Z,100488.25
2017-12-01T16:32:51.256Z,100489.19
2017-12-01T16:35:19.727Z,100483.67
2017-12-01T16:37:48.938Z,100484.31
2017-12-01T16:40:18.943Z,100496.02
2017-12-01T16:42:48.156Z,100495.77
2017-12-01T16:45:18.210Z,100496.72
2017-12-01T16:47:47.418Z,100499.70
2017-12-01T16:50:16.646Z,100499.01
2017-12-01T16:52:45.837Z,100510.72
2017-12-01T16:55:15.041Z,100512.59
2017-12-01T16:57:44.259Z,100509.52
2017-12-01T17:00:14.243Z,100517.59
2017-12-01T17:02:43.461Z,100523.66
2017-12-01T17:05:12.992Z,100533.05
2017-12-01T17:07:42.164Z,100529.43
2017-12-01T17:10:12.168Z,100529.95
2017-12-01T17:12:41.360Z,100532.51
2017-12-01T17:15:11.370Z,100533.33
2017-12-01T17:17:40.596Z,100537.61
2017-12-01T17:20:10.575Z,100537.88
2017-12-01T17:22:39.778Z,100538.44
2017-12-01T17:25:09.010Z,100543.53
2017-12-01T17:27:38.225Z,100547.95
2017-12-01T17:30:07.455Z,100558.58
2017-12-01T17:32:37.424Z,100552.81
2017-12-01T17:35:07.420Z,100559.66
2017-12-01T17:37:36.662Z,100567.45
2017-12-01T17:40:05.863Z,100572.67
2017-12-01T17:42:35.124Z,100577.64
2017-12-01T17:45:05.089Z,100578.56
2017-12-01T17:47:34.301Z,100582.34
2017-12-01T17:50:03.519Z,100583.11
2017-12-01T17:52:32.699Z,100591.45
2017-12-01T17:55:01.929Z,100597.08
2017-12-01T17:57:31.910Z,100590.89
2017-12-01T18:00:01.927Z,100601.38
2017-12-01T18:02:31.238Z,100596.41
2017-12-01T18:05:01.247Z,100604.33
2017-12-01T18:07:30.426Z,100611.13
2017-12-01T18:09:59.620Z,100606.30
2017-12-01T18:12:28.847Z,100603.23
2017-12-01T18:14:58.057Z,100605.12
2017-12-01T18:17:28.040Z,100604.17
2017-12-01T18:19:57.243Z,100610.73
2017-12-01T18:22:27.210Z,100600.13
2017-12-01T18:24:57.200Z,100600.66
2017-12-01T18:27:26.544Z,100603.61
2017-12-01T18:29:55.762Z,100611.56
2017-12-01T18:32:25.067Z,100611.83
2017-12-01T18:34:54.296Z,100616.13
2017-12-01T18:37:24.342Z,100621.77
2017-12-01T18:39:53.553Z,100628.86
2017-12-01T18:42:22.795Z,100631.67
2017-12-01T18:58:14.648Z,100647.81
2017-12-01T19:00:43.858Z,100654.80
2017-12-01T19:03:13.267Z,100652.72
2017-12-01T19:05:42.474Z,100663.70
2017-12-01T19:08:11.701Z,100665.98
2017-12-01T19:10:40.912Z,100670.91
2017-12-01T19:13:10.965Z,100672.52
2017-12-01T19:15:40.129Z,100679.38
2017-12-01T19:18:10.156Z,100679.77
2017-12-01T19:20:40.211Z,100680.87
2017-12-01T19:23:09.600Z,100690.14
2017-12-01T19:25:39.066Z,100682.86
2017-12-01T19:28:09.067Z,100691.58
2017-12-01T19:30:38.302Z,100685.64
2017-12-01T19:33:08.308Z,100696.11
2017-12-01T19:35:37.536Z,100701.56
2017-12-01T19:38:06.744Z,100692.80
2017-12-01T19:40:36.071Z,100699.50
2017-12-01T19:43:05.427Z,100702.14
2017-12-01T19:45:35.400Z,100703.61
2017-12-01T19:48:04.757Z,100709.34
2017-12-01T19:50:34.007Z,100711.56
2017-12-01T19:53:04.020Z,100714.10
2017-12-01T19:55:33.300Z,100714.05
2017-12-01T19:58:02.571Z,100720.45
2017-12-01T20:00:31.823Z,100720.64
2017-12-01T20:03:01.028Z,100721.66
2017-12-01T20:05:31.190Z,100729.56
2017-12-01T20:08:00.470Z,100728.48
2017-12-01T20:10:29.679Z,100724.19
2017-12-01T20:12:58.935Z,100730.89
2017-12-01T20:15:28.923Z,100734.51
2017-12-01T20:17:58.168Z,100735.42
2017-12-01T20:20:27.393Z,100734.52
2017-12-01T20:22:56.592Z,100732.92
2017-12-01T20:25:25.838Z,100731.98
2017-12-01T20:27:55.069Z,100737.63
2017-12-01T20:30:24.269Z,100744.50
2017-12-01T20:32:53.512Z,100748.41
2017-12-01T20:35:22.845Z,100744.66
2017-12-01T20:37:52.041Z,100755.22
2017-12-01T20:40:21.335Z,100754.52
2017-12-01T20:42:51.320Z,100746.75
2017-12-01T20:45:20.608Z,100755.63
2017-12-01T20:47:50.645Z,100754.36
2017-12-01T20:50:19.872Z,100755.30
2017-12-01T20:52:49.827Z,100757.79
2017-12-01T20:55:19.094Z,100764.50
2017-12-01T20:57:48.322Z,100766.55
2017-12-01T21:00:17.624Z,100770.45
2017-12-01T21:02:46.868Z,100764.97
2017-12-01T21:05:16.862Z,100772.55
2017-12-01T21:07:46.108Z,100770.80
2017-12-01T21:10:15.332Z,100772.95
2017-12-01T21:12:44.612Z,100767.69
2017-12-01T21:15:14.343Z,100775.09
2017-12-01T21:17:43.606Z,100783.59
2017-12-01T21:20:12.860Z,100779.97
2017-12-01T21:22:42.100Z,100790.63
2017-12-01T21:25:12.072Z,100795.73
2017-12-01T21:27:41.766Z,100794.31
2017-12-01T21:30:10.961Z,100796.48
2017-12-01T21:32:40.358Z,100794.80
2017-12-01T21:35:09.556Z,100801.56
2017-12-01T21:37:38.851Z,100797.73
2017-12-01T21:40:08.949Z,100798.82
2017-12-01T21:42:38.169Z,100805.71
2017-12-01T21:45:07.382Z,100813.91
2017-12-01T21:47:36.876Z,100813.23
2017-12-01T21:50:06.218Z,100816.37
2017-12-01T21:52:35.465Z,100816.91
2017-12-01T21:55:04.764Z,100822.41
2017-12-01T21:57:34.025Z,100825.76
2017-12-01T22:00:04.097Z,100825.29
2017-12-01T22:02:33.404Z,100827.23
2017-12-01T22:05:02.675Z,100831.81
2017-12-01T22:07:31.943Z,100834.30
2017-12-01T22:10:01.924Z,100828.58
2017-12-01T22:12:31.219Z,100828.12
2017-12-01T22:15:00.432Z,100828.51
2017-12-01T22:17:30.436Z,100830.61
2017-12-01T22:19:59.771Z,100831.52
2017-12-01T22:22:29.068Z,100839.38
2017-12-01T22:24:58.386Z,100838.98
2017-12-01T22:27:27.694Z,100836.30
2017-12-01T22:29:57.001Z,100835.22
2017-12-01T22:32:26.224Z,100836.30
2017-12-01T22:34:55.456Z,100841.45
2017-12-01T22:37:25.516Z,100837.52
2017-12-01T22:39:54.816Z,100843.39
2017-12-01T22:42:24.068Z,100842.18
2017-12-01T22:44:53.385Z,100840.84
2017-12-01T22:47:22.653Z,100847.35
2017-12-01T22:49:51.875Z,100845.04
2017-12-01T22:52:21.934Z,100845.31
2017-12-01T22:54:51.272Z,100851.86
2017-12-01T22:57:21.276Z,100855.48
2017-12-01T22:59:51.259Z,100847.37
2017-12-01T23:02:20.626Z,100855.59
2017-12-01T23:04:50.606Z,100852.48
2017-12-01T23:07:19.949Z,100858.04
2017-12-01T23:09:49.957Z,100855.10
2017-12-01T23:12:20.012Z,100849.27
2017-12-01T23:14:49.255Z,100862.14
2017-12-01T23:17:19.490Z,100862.09
2017-12-01T23:19:48.730Z,100863.97
2017-12-01T23:22:17.949Z,100868.63
2017-12-01T23:24:47.166Z,100867.17
2017-12-01T23:27:16.552Z,100865.56
2017-12-01T23:29:45.786Z,100857.01
2017-12-01T23:32:15.190Z,100865.59
2017-12-01T23:34:45.151Z,100858.91
2017-12-01T23:37:14.423Z,100860.41
2017-12-01T23:39:43.635Z,100855.39
2017-12-01T23:42:12.857Z,100853.33
2017-12-01T23:44:42.049Z,100849.07
2017-12-01T23:47:11.264Z,100855.56
2017-12-01T23:49:40.486Z,100862.14
2017-12-01T23:52:10.461Z,100862.20
2017-12-01T23:54:39.689Z,100861.94
2017-12-01T23:57:08.893Z,100864.36
2017-12-01T23:59:38.107Z,100872.67
